sensor_id;sensor_type;location;lat;lon;timestamp;P1;durP1;ratioP1;P2;durP2;ratioP2
59607;SDS011;45426;44.726;10.390;2023-07-16T00:00:58;5.88;;;2.83;;
59607;SDS011;45426;44.726;10.390;2023-07-16T00:03:34;7.53;;;3.03;;
59607;SDS011;45426;44.726;10.390;2023-07-16T00:06:02;8.50;;;2.83;;
59607;SDS011;45426;44.726;10.390;2023-07-16T00:08:32;5.68;;;2.95;;
59607;SDS011;45426;44.726;10.390;2023-07-16T00:10:58;9.98;;;3.13;;
59607;SDS011;45426;44.726;10.390;2023-07-16T00:13:23;7.75;;;2.85;;
59607;SDS011;45426;44.726;10.390;2023-07-16T00:15:49;8.70;;;3.00;;
59607;SDS011;45426;44.726;10.390;2023-07-16T00:18:14;6.43;;;2.70;;
59607;SDS011;45426;44.726;10.390;2023-07-16T00:20:40;5.57;;;3.13;;
59607;SDS011;45426;44.726;10.390;2023-07-16T00:23:05;7.40;;;3.10;;
59607;SDS011;45426;44.726;10.390;2023-07-16T00:25:31;6.85;;;3.00;;
59607;SDS011;45426;44.726;10.390;2023-07-16T00:27:57;5.40;;;2.80;;
59607;SDS011;45426;44.726;10.390;2023-07-16T00:30:22;4.43;;;2.70;;
59607;SDS011;45426;44.726;10.390;2023-07-16T00:32:48;6.60;;;2.88;;
59607;SDS011;45426;44.726;10.390;2023-07-16T00:35:13;7.35;;;2.85;;
59607;SDS011;45426;44.726;10.390;2023-07-16T00:37:39;9.80;;;3.08;;
59607;SDS011;45426;44.726;10.390;2023-07-16T00:40:08;6.95;;;3.10;;
59607;SDS011;45426;44.726;10.390;2023-07-16T00:42:34;23.88;;;3.72;;
59607;SDS011;45426;44.726;10.390;2023-07-16T00:44:59;5.90;;;3.08;;
59607;SDS011;45426;44.726;10.390;2023-07-16T00:47:24;6.10;;;3.00;;
59607;SDS011;45426;44.726;10.390;2023-07-16T00:49:50;5.95;;;3.42;;
59607;SDS011;45426;44.726;10.390;2023-07-16T00:52:18;6.97;;;3.10;;
59607;SDS011;45426;44.726;10.390;2023-07-16T00:54:46;5.90;;;2.92;;
59607;SDS011;45426;44.726;10.390;2023-07-16T00:57:14;8.60;;;3.00;;
59607;SDS011;45426;44.726;10.390;2023-07-16T00:59:42;6.50;;;2.80;;
59607;SDS011;45426;44.726;10.390;2023-07-16T01:02:08;6.88;;;3.15;;
59607;SDS011;45426;44.726;10.390;2023-07-16T01:04:36;6.78;;;2.90;;
59607;SDS011;45426;44.726;10.390;2023-07-16T01:07:03;8.65;;;3.20;;
59607;SDS011;45426;44.726;10.390;2023-07-16T01:09:31;7.00;;;3.20;;
59607;SDS011;45426;44.726;10.390;2023-07-16T01:11:58;9.20;;;3.00;;
59607;SDS011;45426;44.726;10.390;2023-07-16T01:14:25;7.13;;;3.10;;
59607;SDS011;45426;44.726;10.390;2023-07-16T01:16:57;7.78;;;3.13;;
59607;SDS011;45426;44.726;10.390;2023-07-16T01:19:26;8.30;;;3.35;;
59607;SDS011;45426;44.726;10.390;2023-07-16T01:30:06;7.53;;;3.15;;
59607;SDS011;45426;44.726;10.390;2023-07-16T01:32:34;5.38;;;3.28;;
59607;SDS011;45426;44.726;10.390;2023-07-16T01:35:04;7.25;;;3.17;;
59607;SDS011;45426;44.726;10.390;2023-07-16T01:37:31;6.20;;;3.10;;
59607;SDS011;45426;44.726;10.390;2023-07-16T01:40:00;7.97;;;3.10;;
59607;SDS011;45426;44.726;10.390;2023-07-16T01:42:26;4.65;;;2.97;;
59607;SDS011;45426;44.726;10.390;2023-07-16T01:44:52;5.20;;;3.10;;
59607;SDS011;45426;44.726;10.390;2023-07-16T01:49:55;4.57;;;3.10;;
59607;SDS011;45426;44.726;10.390;2023-07-16T01:52:24;6.53;;;3.20;;
59607;SDS011;45426;44.726;10.390;2023-07-16T01:54:49;6.72;;;3.00;;
59607;SDS011;45426;44.726;10.390;2023-07-16T01:57:15;7.82;;;3.65;;
59607;SDS011;45426;44.726;10.390;2023-07-16T01:59:40;6.38;;;3.28;;
59607;SDS011;45426;44.726;10.390;2023-07-16T02:02:06;10.52;;;3.50;;
59607;SDS011;45426;44.726;10.390;2023-07-16T02:04:31;8.63;;;3.40;;
59607;SDS011;45426;44.726;10.390;2023-07-16T02:06:57;7.97;;;3.15;;
59607;SDS011;45426;44.726;10.390;2023-07-16T02:09:22;7.78;;;3.30;;
59607;SDS011;45426;44.726;10.390;2023-07-16T02:11:48;6.95;;;3.47;;
59607;SDS011;45426;44.726;10.390;2023-07-16T02:14:13;7.18;;;3.25;;
59607;SDS011;45426;44.726;10.390;2023-07-16T02:16:41;7.47;;;3.58;;
59607;SDS011;45426;44.726;10.390;2023-07-16T02:19:06;6.82;;;3.53;;
59607;SDS011;45426;44.726;10.390;2023-07-16T02:21:32;7.53;;;3.30;;
59607;SDS011;45426;44.726;10.390;2023-07-16T02:23:57;7.40;;;3.38;;
59607;SDS011;45426;44.726;10.390;2023-07-16T02:26:23;7.07;;;3.10;;
59607;SDS011;45426;44.726;10.390;2023-07-16T02:28:48;5.70;;;3.53;;
59607;SDS011;45426;44.726;10.390;2023-07-16T02:31:14;6.60;;;3.17;;
59607;SDS011;45426;44.726;10.390;2023-07-16T02:33:39;8.18;;;3.47;;
59607;SDS011;45426;44.726;10.390;2023-07-16T02:36:05;5.55;;;3.30;;
59607;SDS011;45426;44.726;10.390;2023-07-16T02:38:31;8.75;;;3.90;;
59607;SDS011;45426;44.726;10.390;2023-07-16T02:40:56;9.75;;;3.40;;
59607;SDS011;45426;44.726;10.390;2023-07-16T02:43:22;8.45;;;3.45;;
59607;SDS011;45426;44.726;10.390;2023-07-16T02:45:47;10.00;;;3.50;;
59607;SDS011;45426;44.726;10.390;2023-07-16T02:48:16;11.10;;;3.60;;
59607;SDS011;45426;44.726;10.390;2023-07-16T02:50:44;9.48;;;3.53;;
59607;SDS011;45426;44.726;10.390;2023-07-16T02:53:10;8.02;;;3.95;;
59607;SDS011;45426;44.726;10.390;2023-07-16T02:55:37;7.90;;;3.55;;
59607;SDS011;45426;44.726;10.390;2023-07-16T02:58:03;9.02;;;4.00;;
59607;SDS011;45426;44.726;10.390;2023-07-16T03:00:35;9.98;;;4.47;;
59607;SDS011;45426;44.726;10.390;2023-07-16T03:03:03;8.40;;;3.90;;
59607;SDS011;45426;44.726;10.390;2023-07-16T03:05:28;9.70;;;3.92;;
59607;SDS011;45426;44.726;10.390;2023-07-16T03:07:54;8.30;;;3.85;;
59607;SDS011;45426;44.726;10.390;2023-07-16T03:10:22;8.55;;;4.50;;
59607;SDS011;45426;44.726;10.390;2023-07-16T03:12:48;8.82;;;3.92;;
59607;SDS011;45426;44.726;10.390;2023-07-16T03:15:16;8.88;;;4.03;;
59607;SDS011;45426;44.726;10.390;2023-07-16T03:17:41;9.13;;;4.07;;
59607;SDS011;45426;44.726;10.390;2023-07-16T03:20:07;10.73;;;4.28;;
59607;SDS011;45426;44.726;10.390;2023-07-16T03:22:33;9.25;;;3.80;;
59607;SDS011;45426;44.726;10.390;2023-07-16T03:24:58;6.78;;;3.80;;
59607;SDS011;45426;44.726;10.390;2023-07-16T03:27:24;9.15;;;3.80;;
59607;SDS011;45426;44.726;10.390;2023-07-16T03:29:49;8.30;;;3.80;;
59607;SDS011;45426;44.726;10.390;2023-07-16T03:32:15;9.27;;;4.00;;
59607;SDS011;45426;44.726;10.390;2023-07-16T03:34:40;7.72;;;3.70;;
59607;SDS011;45426;44.726;10.390;2023-07-16T03:37:06;9.35;;;3.70;;
59607;SDS011;45426;44.726;10.390;2023-07-16T03:39:31;7.70;;;3.90;;
59607;SDS011;45426;44.726;10.390;2023-07-16T03:41:57;8.25;;;3.70;;
59607;SDS011;45426;44.726;10.390;2023-07-16T03:44:22;7.07;;;3.70;;
59607;SDS011;45426;44.726;10.390;2023-07-16T03:46:48;6.88;;;3.83;;
59607;SDS011;45426;44.726;10.390;2023-07-16T03:49:13;13.30;;;3.80;;
59607;SDS011;45426;44.726;10.390;2023-07-16T03:51:39;7.88;;;3.60;;
59607;SDS011;45426;44.726;10.390;2023-07-16T03:54:04;7.93;;;3.72;;
59607;SDS011;45426;44.726;10.390;2023-07-16T03:56:37;6.35;;;3.88;;
59607;SDS011;45426;44.726;10.390;2023-07-16T03:59:08;7.85;;;3.70;;
59607;SDS011;45426;44.726;10.390;2023-07-16T04:01:37;5.90;;;3.63;;
59607;SDS011;45426;44.726;10.390;2023-07-16T04:04:05;7.90;;;3.70;;
59607;SDS011;45426;44.726;10.390;2023-07-16T04:06:31;7.90;;;3.85;;
59607;SDS011;45426;44.726;10.390;2023-07-16T04:09:01;7.40;;;3.75;;
59607;SDS011;45426;44.726;10.390;2023-07-16T04:11:27;8.75;;;3.97;;
59607;SDS011;45426;44.726;10.390;2023-07-16T04:14:00;9.88;;;3.80;;
59607;SDS011;45426;44.726;10.390;2023-07-16T04:16:37;10.25;;;4.10;;
59607;SDS011;45426;44.726;10.390;2023-07-16T04:19:08;7.30;;;3.72;;
59607;SDS011;45426;44.726;10.390;2023-07-16T04:21:34;9.02;;;4.13;;
59607;SDS011;45426;44.726;10.390;2023-07-16T04:24:01;8.05;;;4.00;;
59607;SDS011;45426;44.726;10.390;2023-07-16T04:26:28;8.60;;;4.07;;
59607;SDS011;45426;44.726;10.390;2023-07-16T04:28:53;9.13;;;4.00;;
59607;SDS011;45426;44.726;10.390;2023-07-16T04:31:19;7.65;;;4.40;;
59607;SDS011;45426;44.726;10.390;2023-07-16T04:33:44;8.48;;;4.13;;
59607;SDS011;45426;44.726;10.390;2023-07-16T04:36:10;9.38;;;4.05;;
59607;SDS011;45426;44.726;10.390;2023-07-16T04:38:35;10.68;;;3.92;;
59607;SDS011;45426;44.726;10.390;2023-07-16T04:41:03;9.27;;;4.10;;
59607;SDS011;45426;44.726;10.390;2023-07-16T04:43:29;9.55;;;4.22;;
59607;SDS011;45426;44.726;10.390;2023-07-16T04:46:00;9.30;;;4.30;;
59607;SDS011;45426;44.726;10.390;2023-07-16T04:48:29;9.82;;;4.30;;
59607;SDS011;45426;44.726;10.390;2023-07-16T04:50:54;9.07;;;3.85;;
59607;SDS011;45426;44.726;10.390;2023-07-16T04:53:20;8.70;;;4.00;;
59607;SDS011;45426;44.726;10.390;2023-07-16T04:55:47;8.38;;;3.90;;
59607;SDS011;45426;44.726;10.390;2023-07-16T04:58:12;9.63;;;4.32;;
59607;SDS011;45426;44.726;10.390;2023-07-16T05:00:40;9.80;;;3.90;;
59607;SDS011;45426;44.726;10.390;2023-07-16T05:03:17;8.07;;;3.95;;
59607;SDS011;45426;44.726;10.390;2023-07-16T05:05:42;13.38;;;4.20;;
59607;SDS011;45426;44.726;10.390;2023-07-16T05:08:08;8.82;;;4.35;;
59607;SDS011;45426;44.726;10.390;2023-07-16T05:10:33;6.05;;;3.80;;
59607;SDS011;45426;44.726;10.390;2023-07-16T05:13:02;7.50;;;3.50;;
59607;SDS011;45426;44.726;10.390;2023-07-16T05:15:29;8.05;;;4.35;;
59607;SDS011;45426;44.726;10.390;2023-07-16T05:17:54;8.80;;;3.83;;
59607;SDS011;45426;44.726;10.390;2023-07-16T05:20:22;7.80;;;3.83;;
59607;SDS011;45426;44.726;10.390;2023-07-16T05:22:50;6.72;;;3.55;;
59607;SDS011;45426;44.726;10.390;2023-07-16T05:25:16;7.05;;;3.45;;
59607;SDS011;45426;44.726;10.390;2023-07-16T05:27:44;8.13;;;3.70;;
59607;SDS011;45426;44.726;10.390;2023-07-16T05:30:16;6.72;;;3.50;;
59607;SDS011;45426;44.726;10.390;2023-07-16T05:32:44;7.13;;;3.42;;
59607;SDS011;45426;44.726;10.390;2023-07-16T05:35:12;8.18;;;3.60;;
59607;SDS011;45426;44.726;10.390;2023-07-16T05:40:22;7.50;;;3.80;;
59607;SDS011;45426;44.726;10.390;2023-07-16T05:42:57;9.05;;;3.78;;
59607;SDS011;45426;44.726;10.390;2023-07-16T05:45:32;8.98;;;3.90;;
59607;SDS011;45426;44.726;10.390;2023-07-16T05:48:01;10.25;;;4.07;;
59607;SDS011;45426;44.726;10.390;2023-07-16T05:50:26;7.65;;;3.85;;
59607;SDS011;45426;44.726;10.390;2023-07-16T05:52:54;8.63;;;4.03;;
59607;SDS011;45426;44.726;10.390;2023-07-16T05:59:27;9.95;;;4.40;;
59607;SDS011;45426;44.726;10.390;2023-07-16T06:05:49;9.25;;;4.30;;
59607;SDS011;45426;44.726;10.390;2023-07-16T06:12:05;10.60;;;4.72;;
59607;SDS011;45426;44.726;10.390;2023-07-16T06:14:52;7.55;;;4.28;;
59607;SDS011;45426;44.726;10.390;2023-07-16T06:18:02;10.35;;;4.00;;
59607;SDS011;45426;44.726;10.390;2023-07-16T06:20:43;7.00;;;3.85;;
59607;SDS011;45426;44.726;10.390;2023-07-16T06:23:17;9.80;;;4.68;;
59607;SDS011;45426;44.726;10.390;2023-07-16T06:25:42;13.40;;;4.72;;
59607;SDS011;45426;44.726;10.390;2023-07-16T06:28:15;8.75;;;4.20;;
59607;SDS011;45426;44.726;10.390;2023-07-16T06:30:43;9.63;;;4.63;;
59607;SDS011;45426;44.726;10.390;2023-07-16T06:33:08;10.10;;;4.75;;
59607;SDS011;45426;44.726;10.390;2023-07-16T06:35:34;13.43;;;5.10;;
59607;SDS011;45426;44.726;10.390;2023-07-16T06:38:00;8.95;;;4.97;;
59607;SDS011;45426;44.726;10.390;2023-07-16T06:40:26;9.30;;;4.30;;
59607;SDS011;45426;44.726;10.390;2023-07-16T06:42:53;8.27;;;3.85;;
59607;SDS011;45426;44.726;10.390;2023-07-16T06:45:20;7.68;;;4.35;;
59607;SDS011;45426;44.726;10.390;2023-07-16T06:47:53;9.95;;;4.55;;
59607;SDS011;45426;44.726;10.390;2023-07-16T06:50:41;9.63;;;4.50;;
59607;SDS011;45426;44.726;10.390;2023-07-16T06:53:15;10.65;;;4.68;;
